Terminal Aerodrome Forecast
Issued by NWS Albany, NY

Home | Current Version | Previous Version | Text Only | Print | Product List | Glossary On
Versions: 1 2 3 4 5 6 7 8 9 10 11 12 13 14 15 16 17 18 19 20 21 22 23
000
FTUS41 KALY 042332
TAFGFL
TAF
KGFL 042332Z 0500/0524 28007KT P6SM FEW050 SCT100
     FM050300 VRB03KT P6SM VCSH SCT050 BKN100
     FM050700 00000KT 4SM BR VCSH BKN100
     FM051200 21004KT P6SM FEW050 SCT100
     FM051600 25009KT P6SM VCSH SCT050 BKN100=

USA.gov is the U.S. government's official web portal to all federal, state and local government web resources and services.